Terminal Aerodrome Forecast
Issued by NWS

Home | Current Version | Previous Version | Text Only | Print | Product List | Glossary On
Versions: 1 2 3 4 5 6 7 8 9 10 11 12 13 14
000
FTUS43 KMQT 021700
TAFIWD
TAF
KIWD 021737Z 0218/0318 27008G15KT P6SM FEW050
     FM022300 25007KT P6SM FEW100
     FM030300 22005KT P6SM SCT090
     FM031400 21009G16KT P6SM SCT090
      AMD NOT SKED=

USA.gov is the U.S. government's official web portal to all federal, state and local government web resources and services.